sensor_id;sensor_type;location;lat;lon;timestamp;pressure;altitude;pressure_sealevel;temperature;humidity
59757;BME280;45631;51.962;5.974;2023-02-15T00:00:40;102800.50;;;0.73;100.00
59757;BME280;45631;51.962;5.974;2023-02-15T00:03:08;102808.25;;;0.69;100.00
59757;BME280;45631;51.962;5.974;2023-02-15T00:05:37;102799.56;;;0.66;100.00
59757;BME280;45631;51.962;5.974;2023-02-15T00:08:05;102792.63;;;0.61;100.00
59757;BME280;45631;51.962;5.974;2023-02-15T00:10:33;102789.13;;;0.54;100.00
59757;BME280;45631;51.962;5.974;2023-02-15T00:13:01;102782.19;;;0.52;100.00
59757;BME280;45631;51.962;5.974;2023-02-15T00:15:30;102791.72;;;0.56;100.00
59757;BME280;45631;51.962;5.974;2023-02-15T00:17:58;102789.13;;;0.54;100.00
59757;BME280;45631;51.962;5.974;2023-02-15T00:20:26;102795.19;;;0.55;100.00
59757;BME280;45631;51.962;5.974;2023-02-15T00:22:56;102790.00;;;0.55;100.00
59757;BME280;45631;51.962;5.974;2023-02-15T00:25:24;102782.19;;;0.53;100.00
59757;BME280;45631;51.962;5.974;2023-02-15T00:27:52;102785.69;;;0.54;100.00
59757;BME280;45631;51.962;5.974;2023-02-15T00:30:23;102789.13;;;0.53;100.00
59757;BME280;45631;51.962;5.974;2023-02-15T00:32:52;102792.53;;;0.45;100.00
59757;BME280;45631;51.962;5.974;2023-02-15T00:35:20;102792.50;;;0.44;100.00
59757;BME280;45631;51.962;5.974;2023-02-15T00:37:51;102791.63;;;0.45;100.00
59757;BME280;45631;51.962;5.974;2023-02-15T00:40:20;102789.88;;;0.41;100.00
59757;BME280;45631;51.962;5.974;2023-02-15T00:42:48;102796.84;;;0.46;100.00
59757;BME280;45631;51.962;5.974;2023-02-15T00:45:16;102787.34;;;0.44;100.00
59757;BME280;45631;51.962;5.974;2023-02-15T00:47:44;102784.69;;;0.42;100.00
59757;BME280;45631;51.962;5.974;2023-02-15T00:50:12;102780.41;;;0.40;100.00
59757;BME280;45631;51.962;5.974;2023-02-15T00:52:40;102780.34;;;0.35;100.00
59757;BME280;45631;51.962;5.974;2023-02-15T00:55:08;102781.19;;;0.32;100.00
59757;BME280;45631;51.962;5.974;2023-02-15T00:57:38;102772.53;;;0.29;100.00
59757;BME280;45631;51.962;5.974;2023-02-15T01:00:07;102772.53;;;0.29;100.00
59757;BME280;45631;51.962;5.974;2023-02-15T01:02:35;102774.22;;;0.27;100.00
59757;BME280;45631;51.962;5.974;2023-02-15T01:05:04;102766.44;;;0.22;100.00
59757;BME280;45631;51.962;5.974;2023-02-15T01:07:32;102769.00;;;0.21;100.00
59757;BME280;45631;51.962;5.974;2023-02-15T01:10:04;102769.88;;;0.20;100.00
59757;BME280;45631;51.962;5.974;2023-02-15T01:12:33;102758.63;;;0.19;100.00
59757;BME280;45631;51.962;5.974;2023-02-15T01:15:03;102756.91;;;0.20;100.00
59757;BME280;45631;51.962;5.974;2023-02-15T01:17:31;102753.41;;;0.14;100.00
59757;BME280;45631;51.962;5.974;2023-02-15T01:19:59;102752.56;;;0.12;100.00
59757;BME280;45631;51.962;5.974;2023-02-15T01:22:27;102748.22;;;0.08;100.00
59757;BME280;45631;51.962;5.974;2023-02-15T01:24:55;102753.38;;;0.08;100.00
59757;BME280;45631;51.962;5.974;2023-02-15T01:27:23;102747.34;;;0.11;100.00
59757;BME280;45631;51.962;5.974;2023-02-15T01:29:51;102748.22;;;0.08;100.00
59757;BME280;45631;51.962;5.974;2023-02-15T01:32:21;102747.28;;;0.00;100.00
59757;BME280;45631;51.962;5.974;2023-02-15T01:34:49;102745.53;;;-0.01;100.00
59757;BME280;45631;51.962;5.974;2023-02-15T01:37:17;102742.00;;;-0.08;100.00
59757;BME280;45631;51.962;5.974;2023-02-15T01:39:45;102733.44;;;-0.04;100.00
59757;BME280;45631;51.962;5.974;2023-02-15T01:42:13;102741.19;;;-0.05;100.00
59757;BME280;45631;51.962;5.974;2023-02-15T01:44:52;102727.34;;;-0.09;100.00
59757;BME280;45631;51.962;5.974;2023-02-15T01:47:26;102724.78;;;-0.06;100.00
59757;BME280;45631;51.962;5.974;2023-02-15T01:50:03;102724.75;;;-0.09;100.00
59757;BME280;45631;51.962;5.974;2023-02-15T01:52:35;102735.94;;;-0.08;100.00
59757;BME280;45631;51.962;5.974;2023-02-15T01:55:04;102732.41;;;-0.17;100.00
59757;BME280;45631;51.962;5.974;2023-02-15T01:57:33;102729.88;;;-0.13;100.00
59757;BME280;45631;51.962;5.974;2023-02-15T02:00:04;102735.94;;;-0.08;100.00
59757;BME280;45631;51.962;5.974;2023-02-15T02:02:35;102732.50;;;-0.10;100.00
59757;BME280;45631;51.962;5.974;2023-02-15T02:05:05;102728.16;;;-0.13;100.00
59757;BME280;45631;51.962;5.974;2023-02-15T02:07:37;102731.59;;;-0.14;100.00
59757;BME280;45631;51.962;5.974;2023-02-15T02:10:10;102728.97;;;-0.19;100.00
59757;BME280;45631;51.962;5.974;2023-02-15T02:12:39;102726.38;;;-0.20;100.00
59757;BME280;45631;51.962;5.974;2023-02-15T02:15:10;102721.16;;;-0.23;100.00
59757;BME280;45631;51.962;5.974;2023-02-15T02:17:47;102722.06;;;-0.20;100.00
59757;BME280;45631;51.962;5.974;2023-02-15T02:23:53;102703.03;;;-0.26;100.00
59757;BME280;45631;51.962;5.974;2023-02-15T02:30:24;102716.78;;;-0.30;100.00
59757;BME280;45631;51.962;5.974;2023-02-15T02:33:10;102699.47;;;-0.39;100.00
59757;BME280;45631;51.962;5.974;2023-02-15T02:35:45;102697.72;;;-0.42;100.00
59757;BME280;45631;51.962;5.974;2023-02-15T02:38:21;102698.56;;;-0.40;100.00
59757;BME280;45631;51.962;5.974;2023-02-15T02:41:06;102700.31;;;-0.37;100.00
59757;BME280;45631;51.962;5.974;2023-02-15T02:43:43;102689.13;;;-0.36;100.00
59757;BME280;45631;51.962;5.974;2023-02-15T02:46:19;102684.78;;;-0.43;100.00
59757;BME280;45631;51.962;5.974;2023-02-15T02:48:50;102692.53;;;-0.43;100.00
59757;BME280;45631;51.962;5.974;2023-02-15T02:51:18;102690.78;;;-0.44;100.00
59757;BME280;45631;51.962;5.974;2023-02-15T02:53:50;102683.03;;;-0.44;100.00
59757;BME280;45631;51.962;5.974;2023-02-15T02:56:23;102682.94;;;-0.52;100.00
59757;BME280;45631;51.962;5.974;2023-02-15T02:59:00;102681.25;;;-0.50;100.00
59757;BME280;45631;51.962;5.974;2023-02-15T03:01:34;102676.91;;;-0.53;100.00
59757;BME280;45631;51.962;5.974;2023-02-15T03:04:07;102674.31;;;-0.54;100.00
59757;BME280;45631;51.962;5.974;2023-02-15T03:06:41;102673.44;;;-0.55;100.00
59757;BME280;45631;51.962;5.974;2023-02-15T03:09:15;102674.31;;;-0.56;100.00
59757;BME280;45631;51.962;5.974;2023-02-15T03:11:45;102671.66;;;-0.59;100.00
59757;BME280;45631;51.962;5.974;2023-02-15T03:14:16;102670.84;;;-0.55;100.00
59757;BME280;45631;51.962;5.974;2023-02-15T03:16:51;102668.22;;;-0.58;100.00
59757;BME280;45631;51.962;5.974;2023-02-15T03:19:24;102664.69;;;-0.66;100.00
59757;BME280;45631;51.962;5.974;2023-02-15T03:21:56;102661.19;;;-0.71;100.00
59757;BME280;45631;51.962;5.974;2023-02-15T03:24:33;102661.22;;;-0.70;100.00
59757;BME280;45631;51.962;5.974;2023-02-15T03:27:02;102654.31;;;-0.72;100.00
59757;BME280;45631;51.962;5.974;2023-02-15T03:29:33;102649.19;;;-0.68;100.00
59757;BME280;45631;51.962;5.974;2023-02-15T03:32:07;102651.78;;;-0.68;100.00
59757;BME280;45631;51.962;5.974;2023-02-15T03:34:39;102649.16;;;-0.69;100.00
59757;BME280;45631;51.962;5.974;2023-02-15T03:37:10;102650.00;;;-0.70;100.00
59757;BME280;45631;51.962;5.974;2023-02-15T03:39:45;102648.22;;;-0.77;100.00
59757;BME280;45631;51.962;5.974;2023-02-15T03:42:20;102642.97;;;-0.83;100.00
59757;BME280;45631;51.962;5.974;2023-02-15T03:44:54;102638.69;;;-0.84;100.00
59757;BME280;45631;51.962;5.974;2023-02-15T03:47:26;102637.00;;;-0.79;100.00
59757;BME280;45631;51.962;5.974;2023-02-15T03:50:00;102633.56;;;-0.78;100.00
59757;BME280;45631;51.962;5.974;2023-02-15T03:52:30;102637.88;;;-0.80;100.00
59757;BME280;45631;51.962;5.974;2023-02-15T03:54:59;102643.06;;;-0.77;100.00
59757;BME280;45631;51.962;5.974;2023-02-15T03:57:28;102634.34;;;-0.86;100.00
59757;BME280;45631;51.962;5.974;2023-02-15T04:00:16;102630.84;;;-0.91;100.00
59757;BME280;45631;51.962;5.974;2023-02-15T04:03:11;102633.47;;;-0.86;100.00
59757;BME280;45631;51.962;5.974;2023-02-15T04:05:42;102629.13;;;-0.89;100.00
59757;BME280;45631;51.962;5.974;2023-02-15T04:08:11;102625.66;;;-0.94;100.00
59757;BME280;45631;51.962;5.974;2023-02-15T04:10:40;102621.34;;;-0.92;100.00
59757;BME280;45631;51.962;5.974;2023-02-15T04:13:19;102632.56;;;-0.91;100.00
59757;BME280;45631;51.962;5.974;2023-02-15T04:15:47;102629.13;;;-0.90;100.00
59757;BME280;45631;51.962;5.974;2023-02-15T04:18:33;102624.75;;;-0.96;100.00
59757;BME280;45631;51.962;5.974;2023-02-15T04:21:21;102620.47;;;-0.94;100.00
59757;BME280;45631;51.962;5.974;2023-02-15T04:24:08;102623.91;;;-0.95;100.00
59757;BME280;45631;51.962;5.974;2023-02-15T04:26:53;102623.91;;;-0.96;100.00
59757;BME280;45631;51.962;5.974;2023-02-15T04:29:23;102621.22;;;-1.04;100.00
59757;BME280;45631;51.962;5.974;2023-02-15T04:31:53;102616.88;;;-1.08;100.00
59757;BME280;45631;51.962;5.974;2023-02-15T04:34:22;102622.84;;;-1.12;100.00
59757;BME280;45631;51.962;5.974;2023-02-15T04:36:52;102614.16;;;-1.17;100.00
59757;BME280;45631;51.962;5.974;2023-02-15T04:39:20;102614.13;;;-1.21;100.00
59757;BME280;45631;51.962;5.974;2023-02-15T04:41:48;102618.50;;;-1.16;100.00
59757;BME280;45631;51.962;5.974;2023-02-15T04:44:16;102621.88;;;-1.22;100.00
59757;BME280;45631;51.962;5.974;2023-02-15T04:46:44;102618.44;;;-1.21;100.00
59757;BME280;45631;51.962;5.974;2023-02-15T04:49:12;102616.69;;;-1.22;100.00
59757;BME280;45631;51.962;5.974;2023-02-15T04:51:40;102613.28;;;-1.21;100.00
59757;BME280;45631;51.962;5.974;2023-02-15T04:54:10;102610.69;;;-1.23;100.00
59757;BME280;45631;51.962;5.974;2023-02-15T04:56:38;102614.03;;;-1.28;100.00
59757;BME280;45631;51.962;5.974;2023-02-15T04:59:06;102605.47;;;-1.26;100.00
59757;BME280;45631;51.962;5.974;2023-02-15T05:01:34;102608.00;;;-1.29;100.00
59757;BME280;45631;51.962;5.974;2023-02-15T05:04:02;102610.59;;;-1.30;100.00
59757;BME280;45631;51.962;5.974;2023-02-15T05:06:31;102620.00;;;-1.34;100.00
59757;BME280;45631;51.962;5.974;2023-02-15T05:08:59;102609.59;;;-1.40;100.00
59757;BME280;45631;51.962;5.974;2023-02-15T05:11:31;102608.69;;;-1.42;100.00
59757;BME280;45631;51.962;5.974;2023-02-15T05:13:59;102602.75;;;-1.37;100.00
59757;BME280;45631;51.962;5.974;2023-02-15T05:16:27;102601.06;;;-1.36;100.00
59757;BME280;45631;51.962;5.974;2023-02-15T05:18:55;102597.56;;;-1.38;100.00
59757;BME280;45631;51.962;5.974;2023-02-15T05:21:24;102604.50;;;-1.34;100.00
59757;BME280;45631;51.962;5.974;2023-02-15T05:23:52;102603.63;;;-1.38;100.00
59757;BME280;45631;51.962;5.974;2023-02-15T05:26:21;102602.69;;;-1.41;100.00
59757;BME280;45631;51.962;5.974;2023-02-15T05:29:11;102595.00;;;-1.37;100.00
59757;BME280;45631;51.962;5.974;2023-02-15T05:31:39;102593.19;;;-1.44;100.00
59757;BME280;45631;51.962;5.974;2023-02-15T05:34:10;102596.59;;;-1.46;100.00
59757;BME280;45631;51.962;5.974;2023-02-15T05:36:38;102584.59;;;-1.44;100.00
59757;BME280;45631;51.962;5.974;2023-02-15T05:39:06;102582.00;;;-1.46;100.00
59757;BME280;45631;51.962;5.974;2023-02-15T05:41:35;102581.13;;;-1.46;100.00
59757;BME280;45631;51.962;5.974;2023-02-15T05:44:03;102587.19;;;-1.44;100.00
59757;BME280;45631;51.962;5.974;2023-02-15T05:46:33;102578.53;;;-1.48;100.00
59757;BME280;45631;51.962;5.974;2023-02-15T05:49:01;102579.34;;;-1.50;100.00
59757;BME280;45631;51.962;5.974;2023-02-15T05:51:29;102589.59;;;-1.57;100.00
59757;BME280;45631;51.962;5.974;2023-02-15T05:53:57;102586.22;;;-1.52;100.00
59757;BME280;45631;51.962;5.974;2023-02-15T05:56:25;102590.56;;;-1.50;100.00
59757;BME280;45631;51.962;5.974;2023-02-15T05:58:53;102588.75;;;-1.54;100.00
59757;BME280;45631;51.962;5.974;2023-02-15T06:01:22;102589.59;;;-1.57;100.00
59757;BME280;45631;51.962;5.974;2023-02-15T06:03:51;102587.84;;;-1.59;100.00
59757;BME280;45631;51.962;5.974;2023-02-15T06:06:23;102586.09;;;-1.62;100.00
59757;BME280;45631;51.962;5.974;2023-02-15T06:08:51;102589.59;;;-1.57;100.00
59757;BME280;45631;51.962;5.974;2023-02-15T06:11:19;102593.00;;;-1.59;100.00
59757;BME280;45631;51.962;5.974;2023-02-15T06:13:47;102592.13;;;-1.60;100.00
59757;BME280;45631;51.962;5.974;2023-02-15T06:16:15;102601.59;;;-1.59;100.00
59757;BME280;45631;51.962;5.974;2023-02-15T06:18:44;102599.88;;;-1.58;100.00
59757;BME280;45631;51.962;5.974;2023-02-15T06:21:13;102598.09;;;-1.64;100.00
59757;BME280;45631;51.962;5.974;2023-02-15T06:23:41;102599.75;;;-1.69;100.00
59757;BME280;45631;51.962;5.974;2023-02-15T06:26:10;102607.56;;;-1.63;100.00
59757;BME280;45631;51.962;5.974;2023-02-15T06:28:38;102599.81;;;-1.63;100.00
59757;BME280;45631;51.962;5.974;2023-02-15T06:31:07;102598.09;;;-1.64;100.00
59757;BME280;45631;51.962;5.974;2023-02-15T06:33:36;102590.28;;;-1.70;100.00
59757;BME280;45631;51.962;5.974;2023-02-15T06:36:05;102596.28;;;-1.71;100.00
59757;BME280;45631;51.962;5.974;2023-02-15T06:38:34;102596.31;;;-1.68;100.00
59757;BME280;45631;51.962;5.974;2023-02-15T06:41:02;102602.28;;;-1.71;100.00
59757;BME280;45631;51.962;5.974;2023-02-15T06:43:30;102599.69;;;-1.72;100.00
59757;BME280;45631;51.962;5.974;2023-02-15T06:45:58;102603.22;;;-1.67;100.00
59757;BME280;45631;51.962;5.974;2023-02-15T06:48:27;102602.28;;;-1.71;100.00
59757;BME280;45631;51.962;5.974;2023-02-15T06:50:55;102595.41;;;-1.72;100.00
59757;BME280;45631;51.962;5.974;2023-02-15T06:53:23;102599.66;;;-1.75;100.00
59757;BME280;45631;51.962;5.974;2023-02-15T06:56:00;102596.28;;;-1.71;100.00
59757;BME280;45631;51.962;5.974;2023-02-15T06:58:29;102594.50;;;-1.75;100.00
59757;BME280;45631;51.962;5.974;2023-02-15T07:00:57;102591.81;;;-1.81;100.00
59757;BME280;45631;51.962;5.974;2023-02-15T07:03:25;102587.53;;;-1.82;100.00
59757;BME280;45631;51.962;5.974;2023-02-15T07:05:54;102584.06;;;-1.81;100.00
59757;BME280;45631;51.962;5.974;2023-02-15T07:08:23;102579.81;;;-1.79;100.00
59757;BME280;45631;51.962;5.974;2023-02-15T07:10:54;102575.53;;;-1.77;100.00
59757;BME280;45631;51.962;5.974;2023-02-15T07:13:42;102572.91;;;-1.80;100.00
59757;BME280;45631;51.962;5.974;2023-02-15T07:16:10;102579.81;;;-1.79;100.00
59757;BME280;45631;51.962;5.974;2023-02-15T07:18:39;102581.72;;;-1.67;100.00
59757;BME280;45631;51.962;5.974;2023-02-15T07:21:07;102573.97;;;-1.69;100.00
59757;BME280;45631;51.962;5.974;2023-02-15T07:23:36;102573.97;;;-1.69;100.00
59757;BME280;45631;51.962;5.974;2023-02-15T07:26:06;102574.81;;;-1.67;100.00
59757;BME280;45631;51.962;5.974;2023-02-15T07:28:35;102563.66;;;-1.67;100.00
59757;BME280;45631;51.962;5.974;2023-02-15T07:31:04;102563.03;;;-1.48;100.00
59757;BME280;45631;51.962;5.974;2023-02-15T07:33:33;102553.00;;;-1.23;100.00
59757;BME280;45631;51.962;5.974;2023-02-15T07:36:03;102553.34;;;-0.92;100.00
59757;BME280;45631;51.962;5.974;2023-02-15T07:38:33;102555.97;;;-0.86;100.00
59757;BME280;45631;51.962;5.974;2023-02-15T07:41:07;102550.94;;;-0.72;100.00
59757;BME280;45631;51.962;5.974;2023-02-15T07:43:37;102552.94;;;-0.39;100.00
59757;BME280;45631;51.962;5.974;2023-02-15T07:46:07;102555.66;;;-0.22;100.00
59757;BME280;45631;51.962;5.974;2023-02-15T07:48:36;102556.66;;;-0.01;100.00
59757;BME280;45631;51.962;5.974;2023-02-15T07:51:06;102550.72;;;0.12;100.00
59757;BME280;45631;51.962;5.974;2023-02-15T07:53:36;102543.88;;;0.25;100.00
59757;BME280;45631;51.962;5.974;2023-02-15T07:56:07;102541.34;;;0.39;100.00
59757;BME280;45631;51.962;5.974;2023-02-15T07:58:36;102543.16;;;0.59;100.00
59757;BME280;45631;51.962;5.974;2023-02-15T08:01:24;102544.06;;;0.76;100.00
59757;BME280;45631;51.962;5.974;2023-02-15T08:03:53;102543.25;;;1.00;100.00
59757;BME280;45631;51.962;5.974;2023-02-15T08:06:22;102547.63;;;1.25;100.00
59757;BME280;45631;51.962;5.974;2023-02-15T08:08:51;102546.78;;;1.35;100.00
59757;BME280;45631;51.962;5.974;2023-02-15T08:11:22;102536.38;;;1.46;100.00
59757;BME280;45631;51.962;5.974;2023-02-15T08:13:57;102531.22;;;1.72;100.00
59757;BME280;45631;51.962;5.974;2023-02-15T08:16:29;102530.34;;;1.78;100.00
59757;BME280;45631;51.962;5.974;2023-02-15T08:18:59;102544.13;;;2.01;100.00
59757;BME280;45631;51.962;5.974;2023-02-15T08:21:28;102521.59;;;2.10;100.00
59757;BME280;45631;51.962;5.974;2023-02-15T08:23:57;102522.44;;;2.19;100.00
59757;BME280;45631;51.962;5.974;2023-02-15T08:26:27;102519.84;;;2.23;100.00
59757;BME280;45631;51.962;5.974;2023-02-15T08:28:56;102513.66;;;2.53;100.00
59757;BME280;45631;51.962;5.974;2023-02-15T08:31:25;102508.38;;;2.67;100.00
59757;BME280;45631;51.962;5.974;2023-02-15T08:33:55;102510.91;;;2.81;100.00
59757;BME280;45631;51.962;5.974;2023-02-15T08:36:26;102505.56;;;3.01;100.00
59757;BME280;45631;51.962;5.974;2023-02-15T08:38:58;102514.22;;;3.06;100.00
59757;BME280;45631;51.962;5.974;2023-02-15T08:41:29;102508.94;;;3.17;100.00
59757;BME280;45631;51.962;5.974;2023-02-15T08:43:59;102504.59;;;3.20;100.00
59757;BME280;45631;51.962;5.974;2023-02-15T08:46:30;102495.00;;;3.29;100.00
59757;BME280;45631;51.962;5.974;2023-02-15T08:48:58;102493.97;;;3.42;100.00
59757;BME280;45631;51.962;5.974;2023-02-15T08:51:28;102493.03;;;3.54;100.00
59757;BME280;45631;51.962;5.974;2023-02-15T08:53:58;102492.97;;;3.60;100.00
59757;BME280;45631;51.962;5.974;2023-02-15T08:56:30;102505.00;;;3.70;100.00
59757;BME280;45631;51.962;5.974;2023-02-15T08:58:59;102493.53;;;3.88;100.00
59757;BME280;45631;51.962;5.974;2023-02-15T09:01:29;102492.75;;;3.82;100.00
59757;BME280;45631;51.962;5.974;2023-02-15T09:03:59;102494.41;;;3.89;100.00
59757;BME280;45631;51.962;5.974;2023-02-15T09:06:28;102501.16;;;4.05;100.00
59757;BME280;45631;51.962;5.974;2023-02-15T09:08:57;102496.94;;;3.94;100.00
59757;BME280;45631;51.962;5.974;2023-02-15T09:11:27;102497.69;;;4.06;100.00
59757;BME280;45631;51.962;5.974;2023-02-15T09:13:58;102497.69;;;4.08;100.00
59757;BME280;45631;51.962;5.974;2023-02-15T09:16:29;102491.47;;;4.17;100.00
59757;BME280;45631;51.962;5.974;2023-02-15T09:18:58;102489.63;;;4.27;100.00
59757;BME280;45631;51.962;5.974;2023-02-15T09:21:28;102484.34;;;4.33;100.00
59757;BME280;45631;51.962;5.974;2023-02-15T09:23:58;102489.78;;;4.14;100.00
59757;BME280;45631;51.962;5.974;2023-02-15T09:26:28;102487.84;;;4.32;100.00
59757;BME280;45631;51.962;5.974;2023-02-15T09:28:59;102486.06;;;4.35;100.00
59757;BME280;45631;51.962;5.974;2023-02-15T09:31:29;102482.44;;;4.47;100.00
59757;BME280;45631;51.962;5.974;2023-02-15T09:33:58;102490.16;;;4.53;100.00
59757;BME280;45631;51.962;5.974;2023-02-15T09:36:29;102485.81;;;4.55;100.00
59757;BME280;45631;51.962;5.974;2023-02-15T09:38:58;102488.09;;;4.76;100.00
59757;BME280;45631;51.962;5.974;2023-02-15T09:41:53;102491.56;;;4.78;100.00
59757;BME280;45631;51.962;5.974;2023-02-15T09:44:38;102493.28;;;4.80;100.00
59757;BME280;45631;51.962;5.974;2023-02-15T09:47:26;102489.66;;;4.89;100.00
59757;BME280;45631;51.962;5.974;2023-02-15T09:50:03;102484.44;;;4.89;100.00
59757;BME280;45631;51.962;5.974;2023-02-15T09:52:48;102485.25;;;4.94;100.00
59757;BME280;45631;51.962;5.974;2023-02-15T09:55:28;102482.38;;;5.10;100.00
59757;BME280;45631;51.962;5.974;2023-02-15T09:58:05;102470.88;;;5.23;100.00
59757;BME280;45631;51.962;5.974;2023-02-15T10:00:46;102481.06;;;5.37;100.00
59757;BME280;45631;51.962;5.974;2023-02-15T10:03:34;102475.47;;;5.58;100.00
59757;BME280;45631;51.962;5.974;2023-02-15T10:06:18;102477.03;;;5.69;100.00
59757;BME280;45631;51.962;5.974;2023-02-15T10:09:15;102470.63;;;5.85;100.00
59757;BME280;45631;51.962;5.974;2023-02-15T10:11:55;102472.16;;;5.97;100.00
59757;BME280;45631;51.962;5.974;2023-02-15T10:14:42;102470.16;;;6.10;100.00
59757;BME280;45631;51.962;5.974;2023-02-15T10:17:28;102474.16;;;6.28;100.00
59757;BME280;45631;51.962;5.974;2023-02-15T10:20:08;102463.28;;;6.48;100.00
59757;BME280;45631;51.962;5.974;2023-02-15T10:22:51;102464.88;;;6.54;100.00
59757;BME280;45631;51.962;5.974;2023-02-15T10:25:32;102467.78;;;6.81;100.00
59757;BME280;45631;51.962;5.974;2023-02-15T10:28:05;102469.22;;;6.94;100.00
59757;BME280;45631;51.962;5.974;2023-02-15T10:30:43;102471.56;;;7.05;100.00
59757;BME280;45631;51.962;5.974;2023-02-15T10:33:25;102471.53;;;7.41;100.00
59757;BME280;45631;51.962;5.974;2023-02-15T10:36:08;102471.72;;;7.66;100.00
59757;BME280;45631;51.962;5.974;2023-02-15T10:38:42;102469.16;;;7.65;100.00
59757;BME280;45631;51.962;5.974;2023-02-15T10:41:25;102464.03;;;8.23;100.00
59757;BME280;45631;51.962;5.974;2023-02-15T10:44:08;102469.53;;;8.13;100.00
59757;BME280;45631;51.962;5.974;2023-02-15T10:46:53;102473.59;;;8.55;100.00
59757;BME280;45631;51.962;5.974;2023-02-15T10:49:37;102468.69;;;9.00;100.00
59757;BME280;45631;51.962;5.974;2023-02-15T10:52:17;102461.19;;;9.16;100.00
59757;BME280;45631;51.962;5.974;2023-02-15T10:54:52;102462.78;;;8.93;100.00
59757;BME280;45631;51.962;5.974;2023-02-15T10:57:27;102453.19;;;9.19;100.00
59757;BME280;45631;51.962;5.974;2023-02-15T11:00:05;102446.63;;;9.57;100.00
59757;BME280;45631;51.962;5.974;2023-02-15T11:02:49;102449.34;;;9.79;100.00
59757;BME280;45631;51.962;5.974;2023-02-15T11:05:35;102452.88;;;9.78;100.00
59757;BME280;45631;51.962;5.974;2023-02-15T11:08:10;102456.13;;;10.09;100.00
59757;BME280;45631;51.962;5.974;2023-02-15T11:10:42;102456.75;;;10.63;100.00
59757;BME280;45631;51.962;5.974;2023-02-15T11:13:13;102450.03;;;10.56;100.00
59757;BME280;45631;51.962;5.974;2023-02-15T11:15:45;102449.66;;;10.87;100.00
59757;BME280;45631;51.962;5.974;2023-02-15T11:18:21;102445.66;;;10.99;100.00
59757;BME280;45631;51.962;5.974;2023-02-15T11:20:56;102443.81;;;11.01;100.00
59757;BME280;45631;51.962;5.974;2023-02-15T11:23:27;102437.63;;;11.43;100.00
59757;BME280;45631;51.962;5.974;2023-02-15T11:25:57;102439.59;;;11.38;100.00
59757;BME280;45631;51.962;5.974;2023-02-15T11:28:31;102438.25;;;11.69;100.00
59757;BME280;45631;51.962;5.974;2023-02-15T11:31:12;102444.19;;;11.95;100.00
59757;BME280;45631;51.962;5.974;2023-02-15T11:33:47;102426.94;;;12.07;100.00
59757;BME280;45631;51.962;5.974;2023-02-15T11:36:22;102425.78;;;12.31;100.00
59757;BME280;45631;51.962;5.974;2023-02-15T11:38:56;102420.63;;;12.47;100.00
59757;BME280;45631;51.962;5.974;2023-02-15T11:41:28;102418.25;;;12.60;95.91
59757;BME280;45631;51.962;5.974;2023-02-15T11:44:05;102411.00;;;12.83;96.39
59757;BME280;45631;51.962;5.974;2023-02-15T11:46:36;102413.13;;;12.57;92.06
59757;BME280;45631;51.962;5.974;2023-02-15T11:49:10;102417.56;;;12.74;93.98
59757;BME280;45631;51.962;5.974;2023-02-15T11:51:48;102410.38;;;12.95;90.76
59757;BME280;45631;51.962;5.974;2023-02-15T11:54:21;102401.75;;;13.09;91.27
59757;BME280;45631;51.962;5.974;2023-02-15T11:56:51;102399.19;;;12.90;91.27
59757;BME280;45631;51.962;5.974;2023-02-15T11:59:27;102394.78;;;12.54;92.58
59757;BME280;45631;51.962;5.974;2023-02-15T12:01:57;102378.81;;;12.75;95.52
59757;BME280;45631;51.962;5.974;2023-02-15T12:04:28;102378.63;;;12.43;94.02
59757;BME280;45631;51.962;5.974;2023-02-15T12:07:02;102378.31;;;12.31;94.75
59757;BME280;45631;51.962;5.974;2023-02-15T12:09:34;102376.94;;;12.42;93.47
59757;BME280;45631;51.962;5.974;2023-02-15T12:12:23;102371.31;;;12.30;92.22
59757;BME280;45631;51.962;5.974;2023-02-15T12:14:55;102367.59;;;12.34;95.21
59757;BME280;45631;51.962;5.974;2023-02-15T12:17:26;102356.91;;;12.38;94.21
59757;BME280;45631;51.962;5.974;2023-02-15T12:19:56;102354.13;;;12.41;93.75
59757;BME280;45631;51.962;5.974;2023-02-15T12:22:30;102349.47;;;12.46;94.08
59757;BME280;45631;51.962;5.974;2023-02-15T12:25:00;102346.22;;;12.58;92.54
59757;BME280;45631;51.962;5.974;2023-02-15T12:27:33;102343.28;;;12.64;91.67
59757;BME280;45631;51.962;5.974;2023-02-15T12:30:05;102345.84;;;12.83;92.97
59757;BME280;45631;51.962;5.974;2023-02-15T12:32:46;102340.47;;;12.67;92.02
59757;BME280;45631;51.962;5.974;2023-02-15T12:35:24;102338.78;;;12.49;92.99
59757;BME280;45631;51.962;5.974;2023-02-15T12:37:56;102336.75;;;12.89;92.47
59757;BME280;45631;51.962;5.974;2023-02-15T12:40:28;102335.44;;;12.45;93.19
59757;BME280;45631;51.962;5.974;2023-02-15T12:42:57;102333.81;;;12.60;93.29
59757;BME280;45631;51.962;5.974;2023-02-15T12:45:27;102331.81;;;12.83;93.37
59757;BME280;45631;51.962;5.974;2023-02-15T12:48:18;102332.34;;;13.23;88.36
59757;BME280;45631;51.962;5.974;2023-02-15T12:50:47;102330.84;;;13.01;89.62
59757;BME280;45631;51.962;5.974;2023-02-15T12:53:30;102329.72;;;13.23;89.66
59757;BME280;45631;51.962;5.974;2023-02-15T12:56:00;102322.72;;;13.40;87.62
59757;BME280;45631;51.962;5.974;2023-02-15T12:58:33;102324.34;;;13.74;86.55
59757;BME280;45631;51.962;5.974;2023-02-15T13:01:10;102328.41;;;13.81;86.36
59757;BME280;45631;51.962;5.974;2023-02-15T13:03:58;102324.19;;;13.93;84.02
59757;BME280;45631;51.962;5.974;2023-02-15T13:06:27;102316.09;;;13.96;83.16
59757;BME280;45631;51.962;5.974;2023-02-15T13:08:59;102309.81;;;14.29;83.06
59757;BME280;45631;51.962;5.974;2023-02-15T13:11:33;102310.00;;;14.57;81.73
59757;BME280;45631;51.962;5.974;2023-02-15T13:14:16;102308.22;;;14.57;80.80
59757;BME280;45631;51.962;5.974;2023-02-15T13:16:47;102296.09;;;14.53;80.14
59757;BME280;45631;51.962;5.974;2023-02-15T13:19:18;102298.22;;;14.32;81.91